Nuno Ferreira

Chefscout - Farense
22 Feb 2028
Dienstag
Verarbeitung

Persönlichkeit

Anpassungsfähigkeit (18) Ehrgeiz (10) Kontroverse (1) Loyalität (18) Druck (10) Professionalität (6) Fairness (7) Temperament (11)

Profil

Trainerstil Demokratisch
Lizenz Nationale A
Entschlossenheit 10
Menschenführung 11
Motivation 4
Disziplin 12
Arbeitszufriedenheit
100%
Ermüdung
0%
Rolle Chefscout
Gehalt 32.4K p/W
Vertrag 14.03.2028

Leistung

Verhalten Gut
Trainingseffektivität
48%
Spielerentwicklung
25%
Verletzungsprävention
45%
Taktische Umsetzung
55%

Letzte Ereignisse

Vertragsverhandlung begonnen jetzt
Nahm an einer Scouting-Besprechung teil jetzt
Empfahl ein Transferziel jetzt
Sprach sich gegen ein Transferziel aus jetzt
Empfahl ein Transferziel jetzt
Sprach sich gegen ein Transferziel aus jetzt
Sprach sich gegen ein Transferziel aus jetzt
Empfahl ein Transferziel jetzt

Aktuell beobachtet

159
Spieler Verein Status Fähigkeit Vertrauen Beobachtet Zuletzt beobachtet Letzte Stimme
Pablo Lúcio Bristol City Aktiv 105 / 125 40% 1 09.02.2028 -
Rivaldo Grobler Free State Stars Aktiv 93 / 104 40% 1 09.02.2028 -
Denilson Santos Sporting CP Aktiv 110 / 106 67% 2 08.02.2028 Ablehnen
Kauã Pascini Atlético Mineiro Aktiv 117 / 110 40% 1 08.02.2028 -
Salvador Blopá Casa Pia Aktiv 133 / 122 40% 2 07.02.2028 -
Martim Cunha Porto Aktiv 112 / 119 40% 1 07.02.2028 -
Daniel Costa Sporting CP Aktiv 100 / 110 67% 1 05.02.2028 Ablehnen
Eduardo Felicíssimo Sporting CP Aktiv 115 / 126 67% 3 04.02.2028 Befürworten
Enzo Koffi Le Havre AC Aktiv 121 / 124 40% 1 04.02.2028 -
Harbor Miller LA Galaxy Aktiv 115 / 107 40% 1 01.02.2028 -
Miguel Figueiredo Cesena Aktiv 126 / 128 40% 1 01.02.2028 -
Jan Bürger Gillingham Aktiv 114 / 121 40% 3 31.01.2028 -
Mohammed Habib Sarwari Kariobangi Sharks Aktiv 87 / 72 40% 1 31.01.2028 -
David Valencia Alianza Petrolera Aktiv 113 / 131 40% 1 18.01.2028 -
Bautista Reinhardt Hrvatski Dragovoljac Aktiv 81 / 88 40% 1 18.01.2028 -
Jofre Torrents Ajax Aktiv 135 / 142 40% 2 11.01.2028 -
Giovanni Leoni Bradford City Aktiv 144 / 139 40% 2 11.01.2028 -
Santiago Hezze Chaves Verhandlung 132 / 133 62% 1 01.01.2028 Befürworten
Khama Dolly Utrecht Verhandlung 123 / 124 67% 1 01.01.2028 Befürworten
Dylan Cabral Arsenal Aktiv 110 / 115 40% 2 30.12.2027 -
Nahuel Olmedo Real Cartagena Aktiv 82 / 97 40% 1 30.12.2027 -
Zak Lovelace Crewe Alexandra Aktiv 105 / 123 40% 2 29.12.2027 -
Lorenzo Venturino Genoa Aktiv 144 / 136 40% 1 29.12.2027 -
Ognjen Bondžulić Mladost Lucani Aktiv 105 / 112 40% 4 28.12.2027 -
Baylee Dipepa Norwich City Aktiv 111 / 121 40% 1 28.12.2027 -
Mathis Jangeal Famalicao Aktiv 113 / 112 40% 1 27.12.2027 -
Gabriel Melo Dugopolje Aktiv 97 / 91 40% 2 26.12.2027 -
Thierry Henry Sport Recife Aktiv 78 / 102 40% 1 26.12.2027 -
Adama Goïta Remo Stars Aktiv 113 / 108 40% 7 25.12.2027 -
Alejo Sarco Gijón Aktiv 131 / 119 40% 1 24.12.2027 -
Alexis Duarte Metalurh Zaporizhzhia Aktiv 88 / 86 40% 1 22.12.2027 -
Iwan Morgan Grimsby Town Aktiv 115 / 128 40% 1 21.12.2027 -
Andrés Calderón Deportivo Pereira Aktiv 82 / 87 40% 1 20.12.2027 -
Elion Krosa Odd Aktiv 102 / 102 40% 2 17.12.2027 -
Ryan Kavuma-McQueen Accrington Stanley Aktiv 127 / 135 40% 2 17.12.2027 -
Marvin Illary Helsingborg Aktiv 88 / 96 40% 1 14.12.2027 -
Petcho Camara Haugesund Aktiv 75 / 98 40% 1 14.12.2027 -
Kaique Kenji Cruzeiro Aktiv 129 / 123 40% 1 13.12.2027 -
Tiziano Perrotta Mirandés Aktiv 108 / 117 40% 2 12.12.2027 -
Kevin Angulo America de Cali Aktiv 117 / 120 40% 1 12.12.2027 -
Nicolás Azambuja Cádiz Aktiv 119 / 134 40% 1 06.12.2027 -
David Nogueira Santos Aktiv 87 / 105 40% 1 03.12.2027 -
Arthur Maron São Paulo Aktiv 86 / 109 40% 1 30.11.2027 -
Juan Rodríguez Wanderers Aktiv 88 / 94 40% 1 30.11.2027 -
Luighi Palmeiras Aktiv 108 / 123 40% 1 28.11.2027 -
Chimobi Igwilo Rangers International Aktiv 105 / 99 40% 1 26.11.2027 -
Julián Fabregas Jaguares Aktiv 72 / 84 40% 1 19.11.2027 -
Maren Kefas Plateau United Aktiv 81 / 91 40% 1 19.11.2027 -
Andy Rojas New York Red Bulls Aktiv 92 / 105 40% 1 18.11.2027 -
Mikhail Alexandrov Dinamo Brest Aktiv 81 / 89 40% 1 18.11.2027 -
Kauã Moraes Cruzeiro Aktiv 115 / 128 40% 2 22.10.2027 -
Figueiredo Sampaio Correa Aktiv 107 / 95 40% 2 22.10.2027 -
Godwin Oham Warri Wolves Aktiv 99 / 98 40% 2 18.10.2027 -
Josh Nichols Tranmere Rovers Aktiv 112 / 124 40% 1 17.10.2027 -
Luis Otávio Colorado Rapids Aktiv 97 / 121 40% 1 17.10.2027 -
Joel Ezra Enyimba Aktiv 85 / 99 40% 2 16.10.2027 -
Sebastián Ramírez Jaguares Aktiv 96 / 121 40% 1 16.10.2027 -
Agustín Obregón River Plate Aktiv 117 / 128 40% 1 15.10.2027 -
Júlio Fidelis Fluminense Aktiv 106 / 113 40% 1 15.10.2027 -
Mauro Carrizo Atlético Tucumán Aktiv 118 / 113 40% 1 14.10.2027 -
Hosea Michael Remo Stars Aktiv 76 / 92 40% 1 13.10.2027 -
Chibueze Oputa Rangers International Aktiv 96 / 100 40% 1 09.10.2027 -
Igor Felisberto Sport Recife Aktiv 115 / 106 40% 1 08.10.2027 -
Ronan Kpakio Cardiff City Aktiv 117 / 131 40% 1 08.10.2027 -
Trey Nyoni Rotherham United Aktiv 137 / 142 40% 1 07.10.2027 -
Mads Bomholt Stabaek Aktiv 91 / 107 40% 1 07.10.2027 -
Issa Yusuf Shooting Stars Aktiv 85 / 99 40% 1 05.10.2027 -
Olaniyi Saheed Kwara United Aktiv 98 / 110 40% 1 05.10.2027 -
Junior Machis Atletico Venezuela Aktiv 85 / 76 40% 1 04.10.2027 -
Henri Oeste Aktiv 60 / 81 40% 1 04.10.2027 -
Bahia Criciuma Aktiv 120 / 111 40% 1 07.09.2027 -
Bohdan Kyrykovych Rukh Aktiv 72 / 80 40% 1 16.06.2027 -
Ezekiel Kwame Alladoh Philadelphia Union Aktiv 133 / 127 40% 1 16.06.2027 -
Dion Beljo Standard Liege Verhandlung 131 / 132 66% 1 01.06.2027 Befürworten
Joe Gelhardt Hull City Aktiv 124 / 137 40% 2 31.05.2027 -
Rocco Vata Watford Aktiv 124 / 120 40% 1 31.05.2027 -
Kyle Wootton Stockport County Aktiv 120 / 119 40% 2 30.05.2027 -
Tyrese Campbell Sheffield United Aktiv 134 / 133 40% 4 29.05.2027 -
Cameron Archer Southampton Aktiv 132 / 132 40% 2 28.05.2027 -
Bernat Guiu Virtus Entella Aktiv 116 / 122 40% 1 28.05.2027 -
Davide Bartesaghi AC Milan Aktiv 124 / 134 40% 1 28.05.2027 -
Aune Heggebø West Bromwich Albion Aktiv 125 / 123 40% 2 26.05.2027 -
Christian Saydee Wigan Athletic Aktiv 114 / 113 40% 1 25.05.2027 -
Oli McBurnie Hull City Aktiv 135 / 135 40% 6 24.05.2027 -
Mandla Mahlangu Ajax Cape Town Aktiv 98 / 110 40% 1 24.05.2027 -
Ianis Stoica Estrela da Amadora Aktiv 104 / 120 40% 1 23.05.2027 -
Callum Lang Preston Aktiv 110 / 114 40% 1 23.05.2027 -
Themba Ngcobo SuperSport United Aktiv 116 / 107 40% 5 22.05.2027 -
Zé Leite Leixões Aktiv 120 / 109 40% 5 22.05.2027 -
Daniel Kelly Oxford United Aktiv 116 / 115 40% 2 22.05.2027 -
Aaron Collins Milton Keynes Dons Aktiv 110 / 109 40% 1 21.05.2027 -
Tom Cannon Sheffield United Aktiv 132 / 122 40% 3 20.05.2027 -
Mees Rijks Bristol Rovers Aktiv 114 / 115 40% 2 17.05.2027 -
Callum O'Hare Sheffield United Aktiv 132 / 128 40% 4 15.05.2027 -
Petar Musa Adana Demirspor Aktiv 147 / 129 40% 3 15.05.2027 -
Patson Daka Leicester City Aktiv 122 / 127 40% 3 13.05.2027 -
Zaïd BafdilI Sporting CP Aktiv 98 / 95 67% 2 11.05.2027 Ablehnen
Christ Inao Oulaï Fiorentina Aktiv 132 / 137 40% 1 11.05.2027 -
Leandro Martins Benfica Aktiv 99 / 93 40% 3 09.05.2027 -
Bojan Radulović Huddersfield Town Aktiv 112 / 116 40% 1 05.05.2027 -
Lorent Tolaj Plymouth Argyle Aktiv 112 / 125 40% 1 04.05.2027 -
Evidence Makgopa Orlando Pirates Aktiv 112 / 121 40% 1 04.05.2027 -
Tommy Conway Middlesbrough Aktiv 123 / 133 40% 1 03.05.2027 -
Dylan Lawlor Cardiff City Aktiv 117 / 126 40% 2 02.05.2027 -
Adam Bakoune Ospitaletto Aktiv 103 / 95 40% 2 02.05.2027 -
Moussa Dembélé CR Belouizdad Aktiv 130 / 139 40% 1 30.04.2027 -
João Teixeira Porto Aktiv 107 / 117 40% 3 28.04.2027 -
Yousef Salech Cardiff City Aktiv 127 / 128 40% 2 26.04.2027 -
Richard Koné Queens Park Rangers Aktiv 120 / 119 40% 3 26.04.2027 -
Lorenzo Di Stefano Torres Aktiv 118 / 103 40% 1 23.04.2027 -
Martim Fernandes Porto Aktiv 147 / 140 40% 1 23.04.2027 -
Caleb Yirenkyi Coventry City Aktiv 132 / 139 40% 2 20.04.2027 -
Gustavo Silva Vitoria Guimaraes Aktiv 127 / 118 40% 1 20.04.2027 -
Dom Ballard Leyton Orient Aktiv 111 / 127 40% 3 17.04.2027 -
Jalen Blesa Rio Ave Aktiv 109 / 126 40% 2 16.04.2027 -
Toni Tamarit Alverca Aktiv 116 / 129 40% 2 15.04.2027 -
Niall Ennis Blackpool Aktiv 104 / 118 40% 2 15.04.2027 -
Tobias Slotsager Casertana Aktiv 113 / 121 40% 1 15.04.2027 -
Zane Albarus Cambridge United Aktiv 94 / 104 40% 1 14.04.2027 -
Jhojan Julio Queretaro Aktiv 127 / 111 40% 3 11.04.2027 -
Tyreece Campbell Charlton Athletic Aktiv 119 / 120 40% 1 11.04.2027 -
Tiago Freitas Benfica Aktiv 115 / 118 40% 1 08.04.2027 -
Figueiredo Alverca Aktiv 124 / 121 40% 1 05.04.2027 -
Macaulley Kuma Heart of Lions Aktiv 58 / 72 40% 1 03.04.2027 -
Daniel Vernattus Metalist Aktiv 90 / 89 40% 1 02.04.2027 -
Edwin Asamoah Berekum Chelsea Aktiv 87 / 83 40% 1 30.03.2027 -
Ronan Hale Gillingham Aktiv 103 / 104 40% 1 29.03.2027 -
Lewis Morgan SuperSport United Aktiv 131 / 136 40% 7 27.03.2027 -
Nikolay Bondarenko Irkutsk Aktiv 81 / 77 40% 2 25.03.2027 -
Mourad Tijuana Aktiv 121 / 118 40% 1 24.03.2027 -
Juan Giménez Celta Aktiv 115 / 128 40% 1 22.03.2027 -
Johan Manzambi Newcastle United Aktiv 131 / 146 40% 1 21.03.2027 -
Hlompho Lorch Ajax Cape Town Aktiv 107 / 111 40% 1 19.03.2027 -
Alexandre Brito Chaves Aktiv 106 / 105 40% 1 18.03.2027 -
Hamish Douglas Grimsby Town Aktiv 85 / 104 40% 1 18.03.2027 -
Soufiane Rahimi Guadalajara Aktiv 146 / 138 40% 1 11.03.2027 -
Luis Vázquez Birmingham Aktiv 131 / 131 40% 3 10.03.2027 -
Keagan Phiri Platinum Stars Aktiv 96 / 108 40% 1 08.03.2027 -
Martín Tejón Maritimo Aktiv 110 / 119 40% 1 04.03.2027 -
Vinícius Lopes Santa Clara Aktiv 125 / 112 40% 2 26.02.2027 -
Adnan Courtois KV Oostende Aktiv 135 / 142 40% 1 26.02.2027 -
Stephen Humphrys Bradford City Aktiv 101 / 108 40% 2 18.02.2027 -
André Clovis Leiria Aktiv 120 / 120 40% 1 16.02.2027 -
Etiosa Ighodaro Kaizer Chiefs Aktiv 129 / 111 40% 1 12.02.2027 -
Alfonso Trezza Arouca Aktiv 131 / 128 40% 1 11.02.2027 -
Danyil Alefirenko Chornomorets Aktiv 102 / 104 40% 1 04.02.2027 -
Pau Víctor AVS Aktiv 129 / 130 40% 1 03.02.2027 -
Chuchu Ramírez Nacional Aktiv 124 / 130 40% 1 02.02.2027 -
Taras Mykhavko Dynamo Kyiv Aktiv 113 / 119 40% 1 02.02.2027 -
João Silva Aktiv 99 / 102 58% 1 25.01.2027 -
Jefry Zapata Danubio Verloren 118 / 118 67% 1 01.01.2027 Befürworten
Josh King Chelsea Aktiv 133 / 152 40% 1 07.12.2026 -
Christos Mouzakitis Hull City Aktiv 127 / 132 40% 2 18.11.2026 -
João Simões Sporting CP Aktiv 118 / 138 40% 1 17.11.2026 -
André Oliveira Porto Aktiv 93 / 105 40% 1 07.11.2026 -
David Ozoh Derby County Aktiv 114 / 121 40% 1 06.11.2026 -
Bebeto Tondela Aktiv 122 / 110 58% 1 24.08.2026 -
Thauan Lara Portimonense Aktiv 111 / 114 58% 1 10.08.2026 -
Rodrigo Bogarín Barracas Central Aktiv 124 / 120 40% 1 01.08.2026 -